Terminal Aerodrome Forecast
Issued by NWS

Home | Current Version | Previous Version | Text Only | Print | Product List | Glossary On
Versions: 1 2 3 4 5 6 7 8 9 10 11 12 13 14 15
000
FTUS42 KMLB 022335
TAFSFB
TAF
KSFB 022335Z 0300/0324 06005KT P6SM FEW040 BKN150
     FM030600 21003KT P6SM SCT250
     FM031400 23004KT P6SM SCT025 SCT250
     FM031900 24005KT P6SM VCTS SCT030CB BKN150=

USA.gov is the U.S. government's official web portal to all federal, state and local government web resources and services.